createdAt,value
2019-03-29T00:00:04.149Z,2.7
2019-03-29T00:00:55.020Z,2.7
2019-03-29T00:01:45.887Z,2.8
2019-03-29T00:02:36.754Z,2.8
2019-03-29T00:03:27.632Z,2.8
2019-03-29T00:04:18.506Z,2.9
2019-03-29T00:05:09.386Z,2.8
2019-03-29T00:06:00.297Z,2.7
2019-03-29T00:06:51.171Z,2.7
2019-03-29T00:07:42.278Z,2.7
2019-03-29T00:08:33.189Z,2.7
2019-03-29T00:09:24.066Z,2.7
2019-03-29T00:10:14.938Z,2.8
2019-03-29T00:11:05.836Z,2.8
2019-03-29T00:11:56.713Z,2.8
2019-03-29T00:12:47.584Z,2.8
2019-03-29T00:13:38.452Z,2.8
2019-03-29T00:14:29.322Z,2.7
2019-03-29T00:15:20.249Z,2.7
2019-03-29T00:16:11.122Z,2.7
2019-03-29T00:17:02.004Z,2.8
2019-03-29T00:17:52.882Z,2.9
2019-03-29T00:18:43.752Z,2.9
2019-03-29T00:19:34.625Z,2.9
2019-03-29T00:20:25.498Z,2.9
2019-03-29T00:21:16.403Z,2.9
2019-03-29T00:22:07.278Z,2.8
2019-03-29T00:22:58.146Z,2.8
2019-03-29T00:23:49.100Z,2.7
2019-03-29T00:24:40.404Z,2.8
2019-03-29T00:25:33.001Z,2.8
2019-03-29T00:26:23.972Z,2.7
2019-03-29T00:27:14.841Z,2.7
2019-03-29T00:28:05.710Z,2.6
2019-03-29T00:28:56.580Z,2.5
2019-03-29T00:29:47.455Z,2.5
2019-03-29T00:30:38.377Z,2.5
2019-03-29T00:31:29.250Z,2.4
2019-03-29T00:32:20.130Z,2.6
2019-03-29T00:33:11.002Z,2.7
2019-03-29T00:34:01.868Z,2.7
2019-03-29T00:34:52.734Z,2.7
2019-03-29T00:35:43.600Z,2.6
2019-03-29T00:36:34.500Z,2.6
2019-03-29T00:37:25.363Z,2.6
2019-03-29T00:38:16.236Z,2.6
2019-03-29T00:39:07.114Z,2.6
2019-03-29T00:39:57.977Z,2.6
2019-03-29T00:40:48.877Z,2.5
2019-03-29T00:41:39.747Z,2.5
2019-03-29T00:42:30.625Z,2.4
2019-03-29T00:43:21.489Z,2.4
2019-03-29T00:44:12.364Z,2.4
2019-03-29T00:45:03.238Z,2.4
2019-03-29T00:45:54.142Z,2.4
2019-03-29T00:46:45.014Z,2.5
2019-03-29T00:47:35.887Z,2.5
2019-03-29T00:48:26.776Z,2.6
2019-03-29T00:49:17.647Z,2.6
2019-03-29T00:50:08.532Z,2.6
2019-03-29T00:50:59.443Z,2.5
2019-03-29T00:51:50.351Z,2.5
2019-03-29T00:52:42.332Z,2.5
2019-03-29T00:53:33.828Z,2.5
2019-03-29T00:54:24.699Z,2.5
2019-03-29T00:55:15.567Z,2.6
2019-03-29T00:56:06.464Z,2.6
2019-03-29T00:56:57.328Z,2.6
2019-03-29T00:57:48.197Z,2.7
2019-03-29T00:58:39.069Z,2.7
2019-03-29T00:59:29.949Z,2.6
2019-03-29T01:00:20.818Z,2.6
2019-03-29T01:01:11.712Z,2.6
2019-03-29T01:02:02.584Z,2.5
2019-03-29T01:02:53.477Z,2.5
2019-03-29T01:03:44.345Z,2.4
2019-03-29T01:04:35.211Z,2.4
2019-03-29T01:05:26.074Z,2.4
2019-03-29T01:06:16.987Z,2.4
2019-03-29T01:07:07.852Z,2.4
2019-03-29T01:08:07.434Z,2.4
2019-03-29T01:08:54.535Z,2.3
2019-03-29T01:09:45.402Z,2.2
2019-03-29T01:10:36.282Z,2.2
2019-03-29T01:11:27.187Z,2.2
2019-03-29T01:12:18.061Z,2.2
2019-03-29T01:13:08.929Z,2.3
2019-03-29T01:13:59.889Z,2.4
2019-03-29T01:14:50.765Z,2.4
2019-03-29T01:15:41.641Z,2.3
2019-03-29T01:16:32.548Z,2.4
2019-03-29T01:17:23.422Z,2.5
2019-03-29T01:18:14.285Z,2.6
2019-03-29T01:19:05.152Z,2.7
2019-03-29T01:19:56.107Z,2.9
2019-03-29T01:20:47.401Z,3.1
2019-03-29T01:21:39.260Z,3.3
2019-03-29T01:22:31.312Z,3.4
2019-03-29T01:23:23.956Z,3.6
2019-03-29T01:24:15.879Z,3.7
2019-03-29T01:25:07.969Z,3.9
2019-03-29T01:25:59.081Z,3.9
2019-03-29T01:26:49.978Z,3.9
2019-03-29T01:27:40.852Z,4
2019-03-29T01:28:31.729Z,4
2019-03-29T01:29:22.602Z,4.1
2019-03-29T01:30:13.479Z,4.1
2019-03-29T01:31:04.383Z,4.2
2019-03-29T01:31:55.256Z,4.2
2019-03-29T01:32:46.148Z,4.2
2019-03-29T01:33:37.019Z,4.2
2019-03-29T01:34:27.892Z,4.2
2019-03-29T01:35:18.768Z,4.2
2019-03-29T01:36:09.642Z,4.2
2019-03-29T01:37:00.574Z,4.3
2019-03-29T01:37:51.442Z,4.3
2019-03-29T01:38:42.309Z,4.3
2019-03-29T01:39:33.182Z,4.4
2019-03-29T01:40:24.061Z,4.4
2019-03-29T01:41:14.932Z,4.4
2019-03-29T01:42:05.800Z,4.4
2019-03-29T01:42:56.704Z,4.4
2019-03-29T01:43:47.575Z,4.4
2019-03-29T01:44:38.452Z,4.4
2019-03-29T01:45:29.334Z,4.4
2019-03-29T01:46:20.207Z,4.5
2019-03-29T01:47:11.105Z,4.5
2019-03-29T01:48:01.977Z,4.5
2019-03-29T01:48:52.857Z,4.6
2019-03-29T01:49:43.765Z,4.6
2019-03-29T01:50:35.100Z,4.6
2019-03-29T01:51:26.195Z,4.6
2019-03-29T01:52:17.102Z,4.6
2019-03-29T01:53:07.974Z,4.6
2019-03-29T01:53:58.848Z,4.6
2019-03-29T01:54:49.725Z,4.6
2019-03-29T01:55:40.603Z,4.6
2019-03-29T01:56:31.472Z,4.6
2019-03-29T01:57:22.396Z,4.6
2019-03-29T01:58:13.261Z,4.6
2019-03-29T01:59:04.125Z,4.7
2019-03-29T01:59:54.988Z,4.7
2019-03-29T02:00:45.855Z,4.7
2019-03-29T02:01:36.730Z,4.7
2019-03-29T02:02:27.598Z,4.7
2019-03-29T02:03:18.492Z,4.7
2019-03-29T02:04:09.361Z,4.7
2019-03-29T02:05:01.155Z,4.7
2019-03-29T02:05:52.277Z,4.7
2019-03-29T02:06:43.153Z,4.7
2019-03-29T02:07:34.022Z,4.7
2019-03-29T02:08:35.067Z,4.7
2019-03-29T02:09:20.729Z,4.8
2019-03-29T02:10:11.596Z,4.8
2019-03-29T02:11:02.461Z,4.8
2019-03-29T02:11:53.329Z,4.8
2019-03-29T02:12:44.227Z,4.8
2019-03-29T02:13:35.102Z,4.8
2019-03-29T02:14:26.000Z,4.8
2019-03-29T02:15:16.868Z,4.8
2019-03-29T02:16:07.735Z,4.8
2019-03-29T02:16:58.600Z,4.8
2019-03-29T02:17:49.488Z,4.9
2019-03-29T02:18:40.354Z,4.9
2019-03-29T02:19:31.884Z,4.9
2019-03-29T02:20:23.830Z,4.9
2019-03-29T02:21:14.778Z,4.9
2019-03-29T02:22:05.653Z,4.9
2019-03-29T02:22:56.556Z,4.9
2019-03-29T02:23:47.424Z,4.9
2019-03-29T02:24:38.295Z,4.9
2019-03-29T02:25:29.168Z,4.9
2019-03-29T02:26:20.039Z,4.9
2019-03-29T02:27:10.900Z,4.9
2019-03-29T02:28:01.802Z,4.9
2019-03-29T02:28:52.666Z,4.9
2019-03-29T02:29:43.543Z,5
2019-03-29T02:30:34.414Z,5
2019-03-29T02:31:26.177Z,5
2019-03-29T02:32:17.282Z,5
2019-03-29T02:33:08.199Z,5
2019-03-29T02:33:59.076Z,5
2019-03-29T02:34:54.949Z,5.1
2019-03-29T02:35:45.817Z,5.1
2019-03-29T02:36:36.683Z,5.1
2019-03-29T02:37:29.424Z,5.1
2019-03-29T02:38:20.474Z,5.1
2019-03-29T02:39:11.344Z,5.1
2019-03-29T02:40:02.266Z,5.1
2019-03-29T02:40:53.207Z,5.1
2019-03-29T02:41:44.093Z,5.1
2019-03-29T02:42:34.966Z,5.1
2019-03-29T02:43:25.864Z,5.1
2019-03-29T02:44:16.733Z,5.1
2019-03-29T02:45:07.605Z,5.1
2019-03-29T02:45:58.481Z,5.1
2019-03-29T02:46:49.360Z,5.1
2019-03-29T02:47:40.234Z,5.1
2019-03-29T02:48:31.135Z,5.1
2019-03-29T02:49:22.006Z,5.1
2019-03-29T02:50:12.878Z,5.1
2019-03-29T02:51:04.732Z,5.1
2019-03-29T02:51:55.955Z,5.1
2019-03-29T02:52:46.826Z,5.1
2019-03-29T02:53:37.731Z,5.1
2019-03-29T02:54:28.607Z,5.1
2019-03-29T02:55:19.508Z,5.1
2019-03-29T02:56:10.376Z,5.1
2019-03-29T02:57:01.253Z,5.2
2019-03-29T02:57:52.129Z,5.2
2019-03-29T02:58:43.035Z,5.2
2019-03-29T02:59:33.897Z,5.2
2019-03-29T03:00:24.771Z,5.2
2019-03-29T03:01:15.640Z,5.2
2019-03-29T03:02:06.510Z,5.2
2019-03-29T03:02:57.384Z,5.2
2019-03-29T03:03:48.286Z,5.2
2019-03-29T03:04:39.161Z,5.2
2019-03-29T03:05:30.035Z,5.2
2019-03-29T03:06:20.906Z,5.3
2019-03-29T03:07:11.773Z,5.3
2019-03-29T03:08:02.642Z,5.3
2019-03-29T03:08:53.553Z,5.3
2019-03-29T03:09:44.427Z,5.3
2019-03-29T03:10:35.294Z,5.3
2019-03-29T03:11:26.164Z,5.3
2019-03-29T03:12:17.030Z,5.4
2019-03-29T03:13:07.898Z,5.4
2019-03-29T03:13:58.870Z,5.4
2019-03-29T03:14:49.757Z,5.4
2019-03-29T03:15:40.634Z,5.4
2019-03-29T03:16:31.501Z,5.4
2019-03-29T03:17:22.367Z,5.4
2019-03-29T03:18:13.235Z,5.4
2019-03-29T03:19:04.116Z,5.4
2019-03-29T03:19:55.013Z,5.4
2019-03-29T03:20:45.897Z,5.5
2019-03-29T03:21:36.770Z,5.5
2019-03-29T03:22:27.659Z,5.5
2019-03-29T03:23:18.530Z,5.5
2019-03-29T03:24:09.433Z,5.5
2019-03-29T03:25:00.472Z,5.6
2019-03-29T03:25:51.366Z,5.6
2019-03-29T03:26:42.246Z,5.6
2019-03-29T03:27:33.114Z,5.6
2019-03-29T03:28:23.982Z,5.6
2019-03-29T03:29:14.876Z,5.6
2019-03-29T03:30:05.745Z,5.6
2019-03-29T03:30:56.623Z,5.6
2019-03-29T03:31:47.493Z,5.6
2019-03-29T03:32:38.495Z,5.7
2019-03-29T03:33:29.439Z,5.7
2019-03-29T03:34:20.350Z,5.7
2019-03-29T03:35:11.219Z,5.7
2019-03-29T03:36:02.150Z,5.7
2019-03-29T03:36:53.038Z,5.7
2019-03-29T03:37:43.906Z,5.7
2019-03-29T03:38:34.775Z,5.7
2019-03-29T03:39:31.816Z,5.7
2019-03-29T03:40:21.493Z,5.7
2019-03-29T03:41:12.369Z,5.7
2019-03-29T03:42:03.240Z,5.7
2019-03-29T03:42:54.121Z,5.7
2019-03-29T03:43:44.992Z,5.7
2019-03-29T03:44:35.889Z,5.7
2019-03-29T03:45:26.768Z,5.7
2019-03-29T03:46:17.635Z,5.8
2019-03-29T03:47:08.518Z,5.8
2019-03-29T03:47:59.394Z,5.8
2019-03-29T03:48:50.262Z,5.8
2019-03-29T03:49:41.162Z,5.8
2019-03-29T03:50:32.034Z,5.8
2019-03-29T03:51:22.910Z,5.8
2019-03-29T03:52:13.779Z,5.8
2019-03-29T03:53:04.648Z,5.8
2019-03-29T03:53:55.523Z,5.8
2019-03-29T03:54:46.424Z,5.8
2019-03-29T03:55:37.314Z,5.8
2019-03-29T03:56:28.187Z,5.8
2019-03-29T03:57:19.066Z,5.9
2019-03-29T03:58:09.950Z,5.9
2019-03-29T03:59:00.827Z,5.9
2019-03-29T03:59:51.727Z,5.9
2019-03-29T04:00:42.595Z,5.9
2019-03-29T04:01:33.464Z,5.9
2019-03-29T04:02:24.343Z,5.9
2019-03-29T04:03:15.215Z,5.9
2019-03-29T04:04:06.094Z,5.9
2019-03-29T04:04:56.992Z,5.9
2019-03-29T04:05:47.868Z,5.9
2019-03-29T04:06:38.739Z,6
2019-03-29T04:07:29.608Z,6
2019-03-29T04:08:20.472Z,6
2019-03-29T04:09:11.340Z,6
2019-03-29T04:10:02.239Z,6
2019-03-29T04:10:53.111Z,6
2019-03-29T04:11:43.978Z,6
2019-03-29T04:12:34.845Z,6
2019-03-29T04:13:25.715Z,6
2019-03-29T04:14:16.582Z,6
2019-03-29T04:15:07.474Z,6
2019-03-29T04:15:58.355Z,6
2019-03-29T04:16:49.240Z,6.1
2019-03-29T04:17:40.116Z,6.1
2019-03-29T04:18:30.994Z,6.1
2019-03-29T04:19:21.865Z,6
2019-03-29T04:20:12.765Z,6.1
2019-03-29T04:21:03.637Z,6.1
2019-03-29T04:21:54.517Z,6.1
2019-03-29T04:22:45.389Z,6.1
2019-03-29T04:23:36.261Z,6.1
2019-03-29T04:24:27.136Z,6.1
2019-03-29T04:25:18.030Z,6.1
2019-03-29T04:26:08.896Z,6.1
2019-03-29T04:26:59.768Z,6.1
2019-03-29T04:27:50.636Z,6.1
2019-03-29T04:28:41.539Z,6.1
2019-03-29T04:29:32.410Z,6.1
2019-03-29T04:30:23.311Z,6.1
2019-03-29T04:31:14.247Z,6.1
2019-03-29T04:32:05.166Z,6.1
2019-03-29T04:32:56.050Z,6.1
2019-03-29T04:33:46.924Z,6.1
2019-03-29T04:34:37.801Z,6.1
2019-03-29T04:35:28.705Z,6.1
2019-03-29T04:36:19.581Z,6.1
2019-03-29T04:37:10.452Z,6.1
2019-03-29T04:38:01.322Z,6.1
2019-03-29T04:38:52.195Z,6.1
2019-03-29T04:39:43.076Z,6.1
2019-03-29T04:40:33.981Z,6.1
2019-03-29T04:41:24.850Z,6.1
2019-03-29T04:42:15.718Z,6.1
2019-03-29T04:43:06.598Z,6.1
2019-03-29T04:43:57.463Z,6.1
2019-03-29T04:44:48.336Z,6.1
2019-03-29T04:45:39.290Z,6.1
2019-03-29T04:46:30.177Z,6.1
2019-03-29T04:47:21.045Z,6.1
2019-03-29T04:48:11.912Z,6.1
2019-03-29T04:49:02.787Z,6.1
2019-03-29T04:49:53.655Z,6.1
2019-03-29T04:50:44.529Z,6.1
2019-03-29T04:51:35.423Z,6.1
2019-03-29T04:52:26.287Z,6.1
2019-03-29T04:53:17.152Z,6.1
2019-03-29T04:54:08.022Z,6.1
2019-03-29T04:54:58.888Z,6.1
2019-03-29T04:55:49.752Z,6.1
2019-03-29T04:56:40.660Z,6.1
2019-03-29T04:57:31.527Z,6.1
2019-03-29T04:58:22.393Z,6.1
2019-03-29T04:59:13.256Z,6.1
2019-03-29T05:00:04.124Z,6.1
2019-03-29T05:00:54.992Z,6.1
2019-03-29T05:01:45.895Z,6.1
2019-03-29T05:02:36.759Z,6.1
2019-03-29T05:03:27.627Z,6.1
2019-03-29T05:04:18.494Z,6.1
2019-03-29T05:05:09.362Z,6.1
2019-03-29T05:06:00.233Z,6.1
2019-03-29T05:06:51.132Z,6.2
2019-03-29T05:07:42.104Z,6.2
2019-03-29T05:08:33.029Z,6.2
2019-03-29T05:09:23.897Z,6.2
2019-03-29T05:10:20.793Z,6.2
2019-03-29T05:11:10.571Z,6.2
2019-03-29T05:12:01.476Z,6.2
2019-03-29T05:12:52.357Z,6.2
2019-03-29T05:13:43.237Z,6.2
2019-03-29T05:14:34.103Z,6.2
2019-03-29T05:15:24.976Z,6.2
2019-03-29T05:16:15.876Z,6.2
2019-03-29T05:17:06.751Z,6.2
2019-03-29T05:17:57.630Z,6.2
2019-03-29T05:18:48.506Z,6.2
2019-03-29T05:19:39.400Z,6.2
2019-03-29T05:20:30.279Z,6.2
2019-03-29T05:21:21.154Z,6.2
2019-03-29T05:22:12.052Z,6.3
2019-03-29T05:23:02.932Z,6.3
2019-03-29T05:23:53.809Z,6.3
2019-03-29T05:24:44.699Z,6.3
2019-03-29T05:25:35.572Z,6.3
2019-03-29T05:26:26.445Z,6.3
2019-03-29T05:27:17.371Z,6.3
2019-03-29T05:28:08.239Z,6.3
2019-03-29T05:28:59.116Z,6.4
2019-03-29T05:29:49.991Z,6.4
2019-03-29T05:30:40.855Z,6.4
2019-03-29T05:31:31.735Z,6.4
2019-03-29T05:32:22.653Z,6.4
2019-03-29T05:33:13.526Z,6.4
2019-03-29T05:34:04.398Z,6.4
2019-03-29T05:34:55.274Z,6.4
2019-03-29T05:35:46.152Z,6.4
2019-03-29T05:36:37.029Z,6.4
2019-03-29T05:37:27.930Z,6.4
2019-03-29T05:38:18.796Z,6.5
2019-03-29T05:39:09.676Z,6.5
2019-03-29T05:40:00.547Z,6.5
2019-03-29T05:40:51.439Z,6.5
2019-03-29T05:41:42.313Z,6.5
2019-03-29T05:42:33.211Z,6.6
2019-03-29T05:43:24.078Z,6.6
2019-03-29T05:44:14.947Z,6.6
2019-03-29T05:45:05.814Z,6.6
2019-03-29T05:45:56.705Z,6.6
2019-03-29T05:46:47.576Z,6.6
2019-03-29T05:47:38.474Z,6.6
2019-03-29T05:48:29.343Z,6.6
2019-03-29T05:49:20.215Z,6.6
2019-03-29T05:50:12.116Z,6.6
2019-03-29T05:51:03.004Z,6.6
2019-03-29T05:51:53.880Z,6.6
2019-03-29T05:52:44.796Z,6.6
2019-03-29T05:53:35.670Z,6.6
2019-03-29T05:54:26.542Z,6.6
2019-03-29T05:55:17.416Z,6.6
2019-03-29T05:56:08.286Z,6.7
2019-03-29T05:56:59.171Z,6.7
2019-03-29T05:57:50.070Z,6.7
2019-03-29T05:58:40.949Z,6.7
2019-03-29T05:59:31.833Z,6.7
2019-03-29T06:00:22.705Z,6.7
2019-03-29T06:01:13.577Z,6.7
2019-03-29T06:02:04.450Z,6.7
2019-03-29T06:02:55.425Z,6.8
2019-03-29T06:03:46.349Z,6.8
2019-03-29T06:04:37.295Z,6.8
2019-03-29T06:05:28.212Z,6.8
2019-03-29T06:06:19.082Z,6.8
2019-03-29T06:07:09.950Z,6.8
2019-03-29T06:08:00.864Z,6.9
2019-03-29T06:08:51.738Z,6.9
2019-03-29T06:09:42.611Z,6.9
2019-03-29T06:10:33.504Z,7
2019-03-29T06:11:24.376Z,7
2019-03-29T06:12:20.247Z,7
2019-03-29T06:13:11.143Z,7
2019-03-29T06:14:02.019Z,7
2019-03-29T06:14:52.903Z,7.1
2019-03-29T06:15:43.774Z,7.1
2019-03-29T06:16:39.056Z,7.1
2019-03-29T06:17:30.169Z,7.1
2019-03-29T06:18:21.075Z,7.1
2019-03-29T06:19:11.942Z,7.1
2019-03-29T06:20:02.853Z,7.1
2019-03-29T06:20:53.721Z,7.1
2019-03-29T06:21:44.587Z,7.1
2019-03-29T06:22:35.457Z,7.1
2019-03-29T06:23:26.367Z,7.2
2019-03-29T06:24:17.230Z,7.2
2019-03-29T06:25:08.099Z,7.2
2019-03-29T06:25:58.989Z,7.2
2019-03-29T06:26:49.870Z,7.2
2019-03-29T06:27:40.738Z,7.2
2019-03-29T06:28:31.653Z,7.3
2019-03-29T06:29:22.524Z,7.4
2019-03-29T06:30:13.386Z,7.4
2019-03-29T06:31:04.251Z,7.4
2019-03-29T06:31:55.134Z,7.4
2019-03-29T06:32:46.010Z,7.4
2019-03-29T06:33:36.917Z,7.4
2019-03-29T06:34:27.783Z,7.4
2019-03-29T06:35:18.652Z,7.4
2019-03-29T06:36:09.526Z,7.4
2019-03-29T06:37:00.400Z,7.4
2019-03-29T06:37:51.267Z,7.4
2019-03-29T06:38:42.170Z,7.4
2019-03-29T06:39:33.042Z,7.4
2019-03-29T06:40:23.916Z,7.4
2019-03-29T06:41:14.788Z,7.4
2019-03-29T06:42:05.655Z,7.4
2019-03-29T06:42:56.530Z,7.4
2019-03-29T06:43:47.465Z,7.4
2019-03-29T06:44:38.330Z,7.4
2019-03-29T06:45:29.198Z,7.4
2019-03-29T06:46:20.069Z,7.4
2019-03-29T06:47:10.936Z,7.4
2019-03-29T06:48:01.811Z,7.4
2019-03-29T06:48:52.715Z,7.4
2019-03-29T06:49:43.588Z,7.4
2019-03-29T06:50:34.515Z,7.4
2019-03-29T06:51:25.393Z,7.4
2019-03-29T06:52:16.277Z,7.4
2019-03-29T06:53:07.150Z,7.4
2019-03-29T06:53:58.070Z,7.4
2019-03-29T06:54:48.932Z,7.4
2019-03-29T06:55:39.806Z,7.4
2019-03-29T06:56:30.681Z,7.4
2019-03-29T06:57:21.554Z,7.4
2019-03-29T06:58:12.423Z,7.4
2019-03-29T06:59:03.328Z,7.4
2019-03-29T06:59:54.194Z,7.4
2019-03-29T07:00:46.584Z,7.4
2019-03-29T07:01:37.595Z,7.4
2019-03-29T07:02:28.474Z,7.4
2019-03-29T07:03:19.336Z,7.4
2019-03-29T07:04:10.236Z,7.4
2019-03-29T07:05:01.104Z,7.4
2019-03-29T07:05:51.971Z,7.5
2019-03-29T07:06:42.845Z,7.5
2019-03-29T07:07:33.711Z,7.4
2019-03-29T07:08:24.584Z,7.5
2019-03-29T07:09:15.481Z,7.5
2019-03-29T07:10:06.346Z,7.5
2019-03-29T07:10:57.222Z,7.5
2019-03-29T07:11:48.097Z,7.5
2019-03-29T07:12:38.962Z,7.5
2019-03-29T07:13:29.828Z,7.5
2019-03-29T07:14:20.724Z,7.5
2019-03-29T07:15:11.590Z,7.5
2019-03-29T07:16:02.470Z,7.5
2019-03-29T07:16:53.334Z,7.5
2019-03-29T07:17:44.201Z,7.5
2019-03-29T07:18:35.076Z,7.5
2019-03-29T07:19:25.982Z,7.5
2019-03-29T07:20:16.870Z,7.5
2019-03-29T07:21:20.737Z,7.5
2019-03-29T07:22:03.549Z,7.5
2019-03-29T07:22:54.418Z,7.5
2019-03-29T07:23:45.288Z,7.6
2019-03-29T07:24:36.187Z,7.6
2019-03-29T07:25:27.056Z,7.6
2019-03-29T07:26:17.933Z,7.6
2019-03-29T07:27:08.798Z,7.6
2019-03-29T07:27:59.664Z,7.6
2019-03-29T07:28:50.531Z,7.6
2019-03-29T07:29:41.426Z,7.6
2019-03-29T07:30:32.290Z,7.6
2019-03-29T07:31:23.159Z,7.6
2019-03-29T07:32:14.031Z,7.6
2019-03-29T07:33:04.898Z,7.6
2019-03-29T07:33:55.772Z,7.6
2019-03-29T07:34:49.102Z,7.6
2019-03-29T07:35:40.087Z,7.6
2019-03-29T07:36:30.961Z,7.6
2019-03-29T07:37:21.938Z,7.6
2019-03-29T07:38:12.860Z,7.6
2019-03-29T07:39:03.736Z,7.6
2019-03-29T07:39:54.639Z,7.6
2019-03-29T07:40:45.511Z,7.6
2019-03-29T07:41:36.383Z,7.6
2019-03-29T07:42:27.249Z,7.6
2019-03-29T07:43:18.185Z,7.6
2019-03-29T07:44:09.158Z,7.6
2019-03-29T07:45:00.146Z,7.6
2019-03-29T07:45:51.218Z,7.6
2019-03-29T07:46:42.106Z,7.6
2019-03-29T07:47:32.972Z,7.6
2019-03-29T07:48:23.895Z,7.6
2019-03-29T07:49:14.840Z,7.7
2019-03-29T07:50:05.806Z,7.7
2019-03-29T07:50:56.681Z,7.7
2019-03-29T07:51:47.602Z,7.7
2019-03-29T07:52:38.487Z,7.7
2019-03-29T07:53:29.364Z,7.7
2019-03-29T07:54:20.234Z,7.7
2019-03-29T07:55:11.136Z,7.7
2019-03-29T07:56:02.057Z,7.7
2019-03-29T07:56:53.011Z,7.7
2019-03-29T07:57:43.947Z,7.7
2019-03-29T07:58:34.824Z,7.7
2019-03-29T07:59:25.779Z,7.7
2019-03-29T08:00:20.106Z,7.7
2019-03-29T08:01:11.160Z,7.7
2019-03-29T08:02:02.448Z,7.7
2019-03-29T08:02:55.086Z,7.7
2019-03-29T08:03:46.183Z,7.7
2019-03-29T08:04:37.173Z,7.7
2019-03-29T08:05:28.098Z,7.7
2019-03-29T08:06:19.014Z,7.7
2019-03-29T08:07:09.916Z,7.7
2019-03-29T08:08:00.887Z,7.7
2019-03-29T08:08:51.809Z,7.8
2019-03-29T08:09:42.856Z,7.8
2019-03-29T08:10:33.791Z,7.8
2019-03-29T08:11:26.201Z,7.8
2019-03-29T08:12:17.583Z,7.8
2019-03-29T08:13:08.520Z,7.8
2019-03-29T08:13:59.455Z,7.8
2019-03-29T08:14:50.432Z,7.8
2019-03-29T08:15:41.479Z,7.8
2019-03-29T08:16:32.594Z,7.8
2019-03-29T08:17:23.506Z,7.8
2019-03-29T08:18:14.411Z,7.8
2019-03-29T08:19:05.319Z,7.8
2019-03-29T08:20:13.307Z,7.8
2019-03-29T08:20:52.180Z,7.9
2019-03-29T08:21:43.095Z,7.9
2019-03-29T08:22:34.039Z,7.9
2019-03-29T08:23:24.984Z,7.9
2019-03-29T08:24:15.870Z,7.9
2019-03-29T08:25:06.886Z,7.9
2019-03-29T08:25:57.862Z,7.9
2019-03-29T08:26:48.766Z,7.9
2019-03-29T08:27:39.786Z,7.9
2019-03-29T08:28:30.753Z,7.9
2019-03-29T08:29:21.687Z,7.9
2019-03-29T08:30:12.630Z,8
2019-03-29T08:31:03.578Z,8
2019-03-29T08:31:55.613Z,8
2019-03-29T08:32:46.637Z,8
2019-03-29T08:33:37.547Z,8
2019-03-29T08:34:28.424Z,8.1
2019-03-29T08:35:19.358Z,8.1
2019-03-29T08:36:10.234Z,8.1
2019-03-29T08:37:01.113Z,8.1
2019-03-29T08:37:52.003Z,8.1
2019-03-29T08:38:42.911Z,8.1
2019-03-29T08:39:33.796Z,8.1
2019-03-29T08:40:24.777Z,8.1
2019-03-29T08:41:15.656Z,8.1
2019-03-29T08:42:06.553Z,8.1
2019-03-29T08:42:57.563Z,8.1
2019-03-29T08:43:48.488Z,8.1
2019-03-29T08:44:39.463Z,8.1
2019-03-29T08:45:30.483Z,8.2
2019-03-29T08:46:21.489Z,8.2
2019-03-29T08:47:12.501Z,8.2
2019-03-29T08:48:06.459Z,8.2
2019-03-29T08:48:57.754Z,8.2
2019-03-29T08:49:48.663Z,8.2
2019-03-29T08:50:39.615Z,8.2
2019-03-29T08:51:30.487Z,8.3
2019-03-29T08:52:21.360Z,8.3
2019-03-29T08:53:12.239Z,8.3
2019-03-29T08:54:03.116Z,8.3
2019-03-29T08:54:54.078Z,8.3
2019-03-29T08:55:46.343Z,8.3
2019-03-29T08:56:37.447Z,8.3
2019-03-29T08:57:28.388Z,8.3
2019-03-29T08:58:19.282Z,8.3
2019-03-29T08:59:10.197Z,8.3
2019-03-29T09:00:01.136Z,8.3
2019-03-29T09:00:52.133Z,8.3
2019-03-29T09:01:43.028Z,8.4
2019-03-29T09:02:34.026Z,8.4
2019-03-29T09:03:25.059Z,8.4
2019-03-29T09:04:16.045Z,8.4
2019-03-29T09:05:07.021Z,8.4
2019-03-29T09:05:58.088Z,8.4
2019-03-29T09:06:53.567Z,8.4
2019-03-29T09:07:45.359Z,8.4
2019-03-29T09:08:36.475Z,8.4
2019-03-29T09:09:27.457Z,8.4
2019-03-29T09:10:18.373Z,8.4
2019-03-29T09:11:09.367Z,8.4
2019-03-29T09:12:13.333Z,8.4
2019-03-29T09:12:56.202Z,8.4
2019-03-29T09:13:47.110Z,8.4
2019-03-29T09:14:38.071Z,8.4
2019-03-29T09:15:29.122Z,8.4
2019-03-29T09:16:20.160Z,8.4
2019-03-29T09:17:11.214Z,8.5
2019-03-29T09:18:02.137Z,8.5
2019-03-29T09:18:53.019Z,8.5
2019-03-29T09:19:43.919Z,8.5
2019-03-29T09:20:34.953Z,8.5
2019-03-29T09:21:25.925Z,8.5
2019-03-29T09:22:16.882Z,8.6
2019-03-29T09:23:10.391Z,8.6
2019-03-29T09:24:01.508Z,8.6
2019-03-29T09:24:52.425Z,8.6
2019-03-29T09:25:43.318Z,8.6
2019-03-29T09:26:34.265Z,8.6
2019-03-29T09:27:25.190Z,8.6
2019-03-29T09:28:16.066Z,8.6
2019-03-29T09:29:06.995Z,8.6
2019-03-29T09:29:57.931Z,8.6
2019-03-29T09:30:48.819Z,8.7
2019-03-29T09:31:39.797Z,8.7
2019-03-29T09:32:30.794Z,8.7
2019-03-29T09:33:21.719Z,8.7
2019-03-29T09:34:12.653Z,8.7
2019-03-29T09:35:03.534Z,8.8
2019-03-29T09:35:54.477Z,8.8
2019-03-29T09:36:45.533Z,8.8
2019-03-29T09:37:36.539Z,8.8
2019-03-29T09:38:27.500Z,8.8
2019-03-29T09:39:18.442Z,8.8
2019-03-29T09:40:09.370Z,8.8
2019-03-29T09:41:00.412Z,8.8
2019-03-29T09:41:51.418Z,8.8
2019-03-29T09:42:42.339Z,8.8
2019-03-29T09:43:33.233Z,8.8
2019-03-29T09:44:24.175Z,8.8
2019-03-29T09:45:15.166Z,8.8
2019-03-29T09:46:06.076Z,8.8
2019-03-29T09:46:56.992Z,8.8
2019-03-29T09:47:47.857Z,8.8
2019-03-29T09:48:38.722Z,8.8
2019-03-29T09:49:29.726Z,8.8
2019-03-29T09:50:25.677Z,8.8
2019-03-29T09:51:16.604Z,8.8
2019-03-29T09:52:07.499Z,8.8
2019-03-29T09:53:01.106Z,8.8
2019-03-29T09:53:52.226Z,8.8
2019-03-29T09:54:43.091Z,8.8
2019-03-29T09:55:33.960Z,8.8
2019-03-29T09:56:37.841Z,8.8
2019-03-29T09:57:20.663Z,8.8
2019-03-29T09:58:11.541Z,8.8
2019-03-29T09:59:02.416Z,8.8
2019-03-29T09:59:53.284Z,8.9
2019-03-29T10:00:44.151Z,8.9
2019-03-29T10:01:35.242Z,8.9
2019-03-29T10:02:26.239Z,8.9
2019-03-29T10:03:17.107Z,8.9
2019-03-29T10:04:07.976Z,8.9
2019-03-29T10:04:58.839Z,8.9
2019-03-29T10:05:49.706Z,8.9
2019-03-29T10:06:40.601Z,9
2019-03-29T10:07:31.482Z,9
2019-03-29T10:08:22.376Z,9
2019-03-29T10:09:13.245Z,9
2019-03-29T10:10:04.168Z,9
2019-03-29T10:10:55.110Z,9
2019-03-29T10:11:46.011Z,9
2019-03-29T10:12:42.995Z,9
2019-03-29T10:13:32.698Z,9
2019-03-29T10:14:23.578Z,9
2019-03-29T10:15:14.448Z,9
2019-03-29T10:16:05.383Z,9
2019-03-29T10:16:56.336Z,9
2019-03-29T10:17:47.209Z,9
2019-03-29T10:18:38.075Z,9
2019-03-29T10:19:28.947Z,9
2019-03-29T10:20:19.815Z,9
2019-03-29T10:21:10.683Z,9
2019-03-29T10:22:01.596Z,9
2019-03-29T10:22:52.548Z,9
2019-03-29T10:23:43.434Z,9
2019-03-29T10:24:34.308Z,9
2019-03-29T10:25:25.176Z,9
2019-03-29T10:26:16.042Z,9
2019-03-29T10:27:06.943Z,9
2019-03-29T10:27:57.811Z,9.1
2019-03-29T10:28:48.682Z,9.1
2019-03-29T10:29:39.551Z,9.1
2019-03-29T10:30:30.418Z,9.1
2019-03-29T10:31:31.810Z,9.1
2019-03-29T10:32:17.115Z,9.1
2019-03-29T10:33:07.983Z,9.2
2019-03-29T10:33:58.854Z,9.2
2019-03-29T10:34:49.726Z,9.3
2019-03-29T10:35:51.210Z,9.3
2019-03-29T10:36:36.427Z,9.3
2019-03-29T10:37:27.320Z,9.3
2019-03-29T10:38:18.697Z,9.3
2019-03-29T10:39:09.638Z,9.2
2019-03-29T10:40:00.504Z,9.2
2019-03-29T10:40:51.478Z,9.2
2019-03-29T10:41:42.344Z,9.2
2019-03-29T10:42:33.244Z,9.2
2019-03-29T10:43:24.111Z,9.1
2019-03-29T10:44:14.983Z,9.1
2019-03-29T10:45:05.854Z,9.1
2019-03-29T10:45:56.725Z,9.1
2019-03-29T10:46:47.596Z,9.1
2019-03-29T10:47:43.429Z,9.1
2019-03-29T10:48:34.302Z,9.1
2019-03-29T10:49:25.164Z,9.1
2019-03-29T10:50:16.029Z,9.2
2019-03-29T10:51:08.420Z,9.2
2019-03-29T10:51:59.469Z,9.2
2019-03-29T10:52:50.369Z,9.2
2019-03-29T10:53:41.241Z,9.2
2019-03-29T10:54:32.104Z,9.2
2019-03-29T10:55:22.972Z,9.3
2019-03-29T10:56:13.835Z,9.3
2019-03-29T10:57:04.697Z,9.3
2019-03-29T10:57:55.589Z,9.3
2019-03-29T10:58:46.460Z,9.3
2019-03-29T10:59:37.326Z,9.3
2019-03-29T11:00:28.194Z,9.3
2019-03-29T11:01:19.064Z,9.3
2019-03-29T11:02:09.933Z,9.3
2019-03-29T11:03:00.834Z,9.3
2019-03-29T11:03:51.697Z,9.3
2019-03-29T11:04:42.575Z,9.3
2019-03-29T11:05:33.450Z,9.4
2019-03-29T11:06:25.329Z,9.4
2019-03-29T11:07:16.202Z,9.4
2019-03-29T11:08:07.097Z,9.4
2019-03-29T11:08:57.963Z,9.4
2019-03-29T11:09:48.829Z,9.4
2019-03-29T11:10:39.698Z,9.5
2019-03-29T11:11:30.566Z,9.5
2019-03-29T11:12:21.427Z,9.5
2019-03-29T11:13:13.799Z,9.6
2019-03-29T11:14:05.077Z,9.6
2019-03-29T11:14:55.964Z,9.6
2019-03-29T11:15:46.824Z,9.6
2019-03-29T11:16:37.691Z,9.6
2019-03-29T11:17:28.560Z,9.6
2019-03-29T11:18:19.448Z,9.6
2019-03-29T11:19:10.315Z,9.6
2019-03-29T11:20:01.182Z,9.6
2019-03-29T11:20:52.051Z,9.6
2019-03-29T11:21:42.927Z,9.6
2019-03-29T11:22:33.796Z,9.6
2019-03-29T11:23:24.696Z,9.6
2019-03-29T11:24:15.563Z,9.6
2019-03-29T11:25:06.429Z,9.6
2019-03-29T11:25:57.305Z,9.6
2019-03-29T11:26:48.176Z,9.6
2019-03-29T11:27:39.041Z,9.6
2019-03-29T11:28:29.943Z,9.6
2019-03-29T11:29:20.813Z,9.6
2019-03-29T11:30:11.734Z,9.6
2019-03-29T11:31:02.613Z,9.6
2019-03-29T11:31:53.480Z,9.6
2019-03-29T11:32:44.351Z,9.6
2019-03-29T11:33:35.245Z,9.6
2019-03-29T11:34:26.110Z,9.6
2019-03-29T11:35:16.989Z,9.6
2019-03-29T11:36:07.856Z,9.6
2019-03-29T11:36:58.733Z,9.6
2019-03-29T11:37:49.607Z,9.6
2019-03-29T11:38:40.511Z,9.6
2019-03-29T11:39:31.381Z,9.7
2019-03-29T11:40:22.252Z,9.7
2019-03-29T11:41:13.118Z,9.7
2019-03-29T11:42:03.984Z,9.7
2019-03-29T11:42:54.858Z,9.7
2019-03-29T11:43:45.759Z,9.8
2019-03-29T11:44:36.632Z,9.7
2019-03-29T11:45:27.505Z,9.8